マリエハムン の空港の天気 - METARとTAF

Mariehamn / Aland Island ( EFMA / MHQ ) - オーランド諸島 マリエハムン
飛行場実況気象(Metar)
観測時間05/30 16:50 EEST (05/30 13:50 UTC)
風向・風速北北西 8m/s
視程10km以上
天気現象
なし
気温16℃
湿度45%
気圧1029hPa
METAREFMA 301350Z AUTO 34016KT 320V020 CAVOK 16/04 Q1029
過去の天気等 Google飛行場航空写真 Wunderground天気予報

過去48時間のMETAR

飛行場予報(TAF)
発表時間: 5/30 14:28 EEST (5/30 11:28 UTC)
予報対象時間: 30日15時 EEST ~ 31日0時 EEST
風向・風速北北東 8m/s
視程10km以上
なし
30日15時 EEST ~ 30日19時 EEST に一時的に
風向・風速北北東 8m/s 瞬間風速 14m/s
TAF EFMA 301128Z 3012/3021 02015KT CAVOK
TEMPO 3012/3016 02015G27KT